Time;durP1;ratioP1;P1;durP2;ratioP2;P2;SDS_P1;SDS_P2;PMS_P1;PMS_P2;Temp;Humidity;BMP_temperature;BMP_pressure;BME280_temperature;BME280_humidity;BME280_pressure;Samples;Min_cycle;Max_cycle;Signal;HPM_P1;HPM_P2
2021/12/18 05:02:37;;;;;;;27.20;19.97;;;3.70;99.90;;;;;;5026639;23;20489;-73
2021/12/18 05:05:05;;;;;;;26.17;18.67;;;3.70;99.90;;;;;;4998901;28;20844;-73
2021/12/18 05:07:32;;;;;;;26.20;19.30;;;3.70;99.90;;;;;;4998866;28;20802;-73
2021/12/18 05:09:59;;;;;;;27.43;19.30;;;3.70;99.90;;;;;;4997391;28;20454;-72
2021/12/18 05:12:26;;;;;;;27.30;19.43;;;3.70;99.90;;;;;;4997490;28;20473;-72
2021/12/18 05:14:53;;;;;;;27.70;20.10;;;3.70;99.90;;;;;;4997398;28;20867;-72
2021/12/18 05:17:19;;;;;;;27.90;19.77;;;3.70;99.90;;;;;;4997276;28;20528;-72
2021/12/18 05:19:47;;;;;;;28.23;18.33;;;3.60;99.90;;;;;;4997459;28;20462;-72
2021/12/18 05:22:15;;;;;;;27.40;19.53;;;3.50;99.90;;;;;;4997160;28;20482;-72
2021/12/18 05:24:41;;;;;;;25.50;19.00;;;3.60;99.90;;;;;;4997151;28;20461;-73
2021/12/18 05:27:08;;;;;;;22.80;17.40;;;3.70;99.90;;;;;;4997508;28;20811;-73
2021/12/18 05:29:35;;;;;;;28.50;19.03;;;3.60;99.90;;;;;;4997255;28;20450;-73
2021/12/18 05:32:02;;;;;;;26.37;18.50;;;3.60;99.90;;;;;;4997219;28;20856;-73
2021/12/18 05:34:36;;;;;;;27.10;18.80;;;3.70;99.90;;;;;;4997559;28;20454;-72
2021/12/18 05:37:20;;;;;;;26.97;19.93;;;3.70;99.90;;;;;;4996951;28;20866;-73
2021/12/18 05:39:48;;;;;;;25.83;19.30;;;3.80;99.90;;;;;;4997630;28;20466;-72
2021/12/18 05:42:15;;;;;;;26.73;19.60;;;3.90;99.90;;;;;;4996987;28;20506;-72
2021/12/18 05:44:42;;;;;;;27.50;19.70;;;3.80;99.90;;;;;;4996744;28;20465;-72
2021/12/18 05:47:09;;;;;;;26.87;18.73;;;3.90;99.90;;;;;;4996605;28;20941;-72
2021/12/18 05:49:36;;;;;;;25.67;18.90;;;3.90;99.90;;;;;;4996994;28;20462;-72
2021/12/18 05:52:05;;;;;;;22.80;16.23;;;3.80;99.90;;;;;;4997096;28;20481;-72
2021/12/18 05:54:35;;;;;;;22.43;16.83;;;3.70;99.90;;;;;;4996521;28;20458;-73
2021/12/18 05:57:03;;;;;;;26.70;17.60;;;3.70;99.90;;;;;;4996701;28;20852;-72
2021/12/18 05:59:29;;;;;;;25.97;17.53;;;3.70;99.90;;;;;;4996370;28;20819;-72
2021/12/18 06:01:56;;;;;;;23.67;16.63;;;3.80;99.90;;;;;;4996345;28;20482;-72
2021/12/18 06:04:23;;;;;;;22.63;16.97;;;3.80;99.90;;;;;;4996597;28;20812;-72
2021/12/18 06:06:50;;;;;;;23.07;16.67;;;3.80;99.90;;;;;;4996572;28;20450;-72
2021/12/18 06:09:18;;;;;;;22.83;15.57;;;3.80;99.90;;;;;;4996568;28;20818;-73
2021/12/18 06:11:44;;;;;;;24.07;17.10;;;3.80;99.90;;;;;;4996624;28;20478;-72
2021/12/18 06:14:11;;;;;;;27.50;16.87;;;3.80;99.90;;;;;;4996513;28;20458;-73
2021/12/18 06:16:38;;;;;;;21.03;14.77;;;3.80;99.90;;;;;;4996664;28;20466;-73
2021/12/18 06:19:04;;;;;;;18.13;14.80;;;3.90;99.90;;;;;;4996679;28;20465;-75
2021/12/18 06:21:31;;;;;;;20.67;15.03;;;3.90;99.90;;;;;;4996324;28;20477;-73
2021/12/18 06:23:58;;;;;;;20.63;15.30;;;3.80;99.90;;;;;;4996720;28;20454;-73
2021/12/18 06:26:27;;;;;;;19.50;14.30;;;3.80;99.90;;;;;;4996705;28;20818;-73
2021/12/18 06:28:54;;;;;;;17.90;14.10;;;3.80;99.90;;;;;;4996379;28;20454;-73
2021/12/18 06:31:21;;;;;;;18.80;14.00;;;3.70;99.90;;;;;;4996155;28;21042;-73
2021/12/18 06:33:48;;;;;;;18.43;14.10;;;3.60;99.90;;;;;;4996187;28;20966;-73
2021/12/18 06:36:14;;;;;;;17.03;12.73;;;3.60;99.90;;;;;;4997091;28;20442;-73
2021/12/18 06:38:41;;;;;;;17.73;14.27;;;3.60;99.90;;;;;;4999960;28;20479;-73
2021/12/18 06:41:08;;;;;;;17.83;14.10;;;3.50;99.90;;;;;;4996285;28;20470;-72
2021/12/18 06:43:36;;;;;;;17.50;14.10;;;3.40;99.90;;;;;;4995852;28;20454;-72
2021/12/18 06:46:03;;;;;;;16.47;13.23;;;3.40;99.90;;;;;;4996109;28;20941;-73
2021/12/18 06:48:30;;;;;;;17.37;14.27;;;3.30;99.90;;;;;;4996303;28;20460;-73
2021/12/18 06:50:56;;;;;;;17.67;13.13;;;3.40;99.90;;;;;;4997896;28;20482;-73
2021/12/18 06:53:23;;;;;;;14.57;12.20;;;3.30;99.90;;;;;;4997307;28;20461;-73
2021/12/18 06:55:50;;;;;;;15.97;12.37;;;3.30;99.90;;;;;;4997239;28;20458;-72
2021/12/18 06:58:17;;;;;;;16.30;13.10;;;3.40;99.90;;;;;;4996738;28;20474;-71
2021/12/18 07:00:45;;;;;;;16.40;13.07;;;3.40;99.90;;;;;;4997225;28;20490;-72
2021/12/18 07:03:12;;;;;;;16.10;13.20;;;3.50;99.90;;;;;;4996739;28;20449;-72
2021/12/18 07:05:39;;;;;;;17.20;13.53;;;3.50;99.90;;;;;;4997428;28;20957;-74
2021/12/18 07:08:06;;;;;;;16.00;12.87;;;3.60;99.90;;;;;;4996703;28;20461;-73
2021/12/18 07:10:34;;;;;;;16.00;12.70;;;3.60;99.90;;;;;;4997372;28;20482;-72
2021/12/18 07:13:01;;;;;;;15.60;12.83;;;3.60;99.90;;;;;;4997222;28;20458;-74
2021/12/18 07:15:28;;;;;;;17.73;13.43;;;3.70;99.90;;;;;;4997019;28;20465;-73
2021/12/18 07:17:57;;;;;;;15.93;11.90;;;3.90;99.90;;;;;;4997316;28;20485;-73
2021/12/18 07:20:23;;;;;;;12.30;10.60;;;4.00;99.90;;;;;;4996149;28;20806;-72
2021/12/18 07:22:50;;;;;;;16.10;12.00;;;4.10;99.90;;;;;;4996712;28;20823;-72
2021/12/18 07:25:17;;;;;;;13.57;10.93;;;4.20;99.90;;;;;;4996244;28;20472;-73
2021/12/18 07:27:44;;;;;;;16.50;12.70;;;4.20;99.90;;;;;;4996572;28;20465;-72
2021/12/18 07:30:13;;;;;;;18.30;12.83;;;4.10;99.90;;;;;;4996087;28;20462;-72
2021/12/18 07:32:40;;;;;;;15.77;11.83;;;4.20;99.90;;;;;;4995618;28;20461;-72
2021/12/18 07:35:10;;;;;;;14.67;11.33;;;4.20;99.90;;;;;;4996933;28;20494;-72
2021/12/18 07:37:37;;;;;;;14.90;10.63;;;4.20;99.90;;;;;;4995249;28;20466;-72
2021/12/18 07:40:05;;;;;;;18.60;12.63;;;4.30;99.90;;;;;;4995064;28;20458;-71
2021/12/18 07:42:32;;;;;;;14.10;11.83;;;4.30;99.90;;;;;;4994986;28;20478;-72
2021/12/18 07:44:59;;;;;;;12.90;9.93;;;4.30;99.90;;;;;;5000115;28;20462;-72
2021/12/18 07:47:26;;;;;;;16.23;12.67;;;4.40;99.90;;;;;;4995232;28;20450;-72
2021/12/18 07:49:56;;;;;;;14.47;10.73;;;4.40;99.90;;;;;;4995450;28;20458;-72
2021/12/18 07:52:25;;;;;;;15.77;11.63;;;4.50;99.90;;;;;;4995405;28;20478;-71
2021/12/18 07:54:52;;;;;;;13.80;11.47;;;4.50;99.90;;;;;;4995036;28;20795;-71
2021/12/18 07:57:18;;;;;;;14.20;11.03;;;4.50;99.90;;;;;;4995352;28;20489;-73
2021/12/18 07:59:45;;;;;;;13.60;10.97;;;4.60;99.90;;;;;;4994698;28;20454;-71
2021/12/18 08:02:12;;;;;;;15.30;11.60;;;4.70;99.90;;;;;;4994854;28;20482;-71
2021/12/18 08:04:38;;;;;;;16.10;12.00;;;4.60;99.90;;;;;;4994481;28;20466;-71
2021/12/18 08:07:05;;;;;;;14.80;11.43;;;4.70;99.90;;;;;;4994907;28;20454;-71
2021/12/18 08:09:33;;;;;;;13.10;10.27;;;4.80;99.90;;;;;;4996626;28;20949;-72
2021/12/18 08:12:00;;;;;;;13.70;10.87;;;4.80;99.90;;;;;;4995098;28;20473;-72
2021/12/18 08:14:27;;;;;;;13.60;11.60;;;4.80;99.90;;;;;;4996020;28;20945;-71
2021/12/18 08:16:53;;;;;;;14.20;11.17;;;4.80;99.90;;;;;;4994785;28;20462;-71
2021/12/18 08:19:20;;;;;;;17.23;12.37;;;4.90;99.90;;;;;;4994326;28;20485;-72
2021/12/18 08:21:47;;;;;;;16.37;11.27;;;4.90;99.90;;;;;;4994605;28;20470;-72
2021/12/18 08:24:14;;;;;;;14.03;10.87;;;4.90;99.90;;;;;;4995224;28;20462;-72
2021/12/18 08:26:42;;;;;;;15.87;11.30;;;5.00;99.90;;;;;;4995065;28;20461;-72
2021/12/18 08:29:09;;;;;;;13.90;11.13;;;4.90;99.90;;;;;;4995627;28;20446;-71
2021/12/18 08:31:36;;;;;;;14.67;11.53;;;5.00;99.90;;;;;;4995879;28;20477;-71
2021/12/18 08:34:02;;;;;;;14.53;10.90;;;5.00;99.90;;;;;;4994334;28;20465;-71
2021/12/18 08:36:29;;;;;;;15.37;11.20;;;5.10;99.90;;;;;;4994225;28;20517;-71
2021/12/18 08:38:56;;;;;;;17.50;12.17;;;5.10;99.90;;;;;;4997726;28;20808;-71
2021/12/18 08:41:23;;;;;;;16.20;11.43;;;5.10;99.90;;;;;;4998062;28;20478;-71
2021/12/18 08:43:52;;;;;;;17.37;12.20;;;5.10;99.90;;;;;;4997874;28;20458;-72
2021/12/18 08:46:18;;;;;;;18.20;14.30;;;5.10;99.90;;;;;;4998087;28;20465;-72
2021/12/18 08:48:45;;;;;;;17.30;12.03;;;5.00;99.90;;;;;;4998042;28;20453;-72
2021/12/18 08:51:12;;;;;;;16.67;12.50;;;5.00;99.90;;;;;;4997777;28;20484;-72
2021/12/18 08:53:39;;;;;;;17.07;11.77;;;5.00;99.90;;;;;;4997974;28;20461;-72
2021/12/18 08:56:06;;;;;;;14.70;11.30;;;5.00;99.90;;;;;;4998195;28;20454;-72
2021/12/18 08:58:33;;;;;;;15.07;10.77;;;5.00;99.90;;;;;;4998034;28;20485;-73
2021/12/18 09:01:02;;;;;;;17.23;11.20;;;5.00;99.90;;;;;;4997433;28;20493;-73
2021/12/18 09:03:28;;;;;;;14.37;11.23;;;5.00;99.90;;;;;;4998172;28;20554;-72
2021/12/18 09:05:55;;;;;;;14.33;11.37;;;5.00;99.90;;;;;;4997673;28;20461;-72
2021/12/18 09:08:22;;;;;;;13.60;10.40;;;4.90;99.90;;;;;;4997645;28;20449;-72
2021/12/18 09:10:49;;;;;;;14.20;11.23;;;4.90;99.90;;;;;;4997456;28;20548;-72
2021/12/18 09:13:15;;;;;;;15.27;11.30;;;4.90;99.90;;;;;;4997817;28;20449;-73
2021/12/18 09:15:42;;;;;;;15.57;11.37;;;4.90;99.90;;;;;;4997201;28;20945;-73
2021/12/18 09:18:10;;;;;;;17.60;12.77;;;5.00;99.90;;;;;;4997672;28;20482;-73
2021/12/18 09:20:37;;;;;;;16.40;12.17;;;5.00;99.90;;;;;;4997368;28;20489;-73
2021/12/18 09:23:04;;;;;;;16.00;11.63;;;5.00;99.90;;;;;;4997419;28;20553;-73
2021/12/18 09:25:31;;;;;;;19.10;11.40;;;5.00;99.90;;;;;;4996870;28;20826;-73
2021/12/18 09:27:57;;;;;;;15.67;12.67;;;5.00;99.90;;;;;;4997122;28;20451;-72
2021/12/18 09:30:25;;;;;;;15.57;11.93;;;5.10;99.90;;;;;;4997100;28;20964;-73
2021/12/18 09:32:52;;;;;;;18.27;12.80;;;5.10;99.90;;;;;;4998379;28;20961;-73
2021/12/18 09:35:21;;;;;;;17.90;12.13;;;5.10;99.90;;;;;;5004606;28;20481;-73
2021/12/18 09:37:48;;;;;;;18.43;12.33;;;5.10;99.90;;;;;;4997346;28;20890;-73
2021/12/18 09:40:18;;;;;;;15.50;11.03;;;5.10;99.90;;;;;;4996744;28;20458;-73
2021/12/18 09:42:45;;;;;;;16.07;10.93;;;5.10;99.90;;;;;;4997737;28;20454;-73
2021/12/18 09:45:13;;;;;;;15.40;10.80;;;5.00;99.90;;;;;;4997798;28;20457;-73
2021/12/18 09:47:40;;;;;;;13.17;10.03;;;5.00;99.90;;;;;;4998365;28;20469;-73
2021/12/18 09:50:07;;;;;;;16.97;12.10;;;5.00;99.90;;;;;;4998017;28;20465;-73
2021/12/18 09:52:36;;;;;;;16.20;10.40;;;5.00;99.90;;;;;;4998247;28;20478;-73
2021/12/18 09:55:06;;;;;;;16.57;11.07;;;5.10;99.90;;;;;;4998452;28;20458;-72
2021/12/18 09:57:33;;;;;;;17.33;12.07;;;5.20;99.90;;;;;;4997589;28;20442;-72
2021/12/18 09:59:59;;;;;;;15.33;10.77;;;5.20;99.90;;;;;;4997828;28;20486;-72
2021/12/18 10:02:26;;;;;;;15.00;10.20;;;5.10;99.90;;;;;;4997128;28;20492;-72
2021/12/18 10:04:53;;;;;;;15.20;11.30;;;5.10;99.90;;;;;;4997644;28;20458;-72
2021/12/18 10:07:22;;;;;;;15.80;10.67;;;5.00;99.90;;;;;;4997982;28;20808;-72
2021/12/18 10:09:52;;;;;;;15.20;11.50;;;5.00;99.90;;;;;;4998213;28;20785;-72
2021/12/18 10:12:21;;;;;;;14.67;10.80;;;4.90;99.90;;;;;;4997254;28;20481;-71
2021/12/18 10:14:49;;;;;;;14.03;10.93;;;4.90;99.90;;;;;;4997484;28;20964;-71
2021/12/18 10:17:26;;;;;;;15.80;11.23;;;4.90;99.90;;;;;;4996823;28;20469;-72
2021/12/18 10:19:55;;;;;;;18.40;11.10;;;5.00;99.90;;;;;;4997329;28;20462;-71
2021/12/18 10:22:22;;;;;;;15.00;10.83;;;5.00;99.90;;;;;;4997012;28;20981;-72
2021/12/18 10:25:06;;;;;;;15.20;11.30;;;5.00;99.90;;;;;;4996554;28;20481;-71
2021/12/18 10:27:34;;;;;;;15.30;10.50;;;5.00;99.90;;;;;;4997508;28;20451;-71
2021/12/18 10:30:13;;;;;;;14.67;9.60;;;5.00;99.90;;;;;;4997450;28;20867;-71
2021/12/18 10:32:40;;;;;;;14.67;10.27;;;4.90;99.90;;;;;;4997080;28;20480;-71
2021/12/18 10:35:07;;;;;;;14.73;10.40;;;5.00;99.90;;;;;;4996756;28;20439;-71
2021/12/18 10:37:35;;;;;;;17.80;11.23;;;5.00;99.90;;;;;;4997865;28;20940;-72
2021/12/18 10:40:08;;;;;;;15.00;11.17;;;4.90;99.90;;;;;;4997829;28;20840;-73
2021/12/18 10:42:39;;;;;;;14.63;11.20;;;4.90;99.90;;;;;;4997310;28;20482;-73
2021/12/18 10:45:11;;;;;;;14.50;10.93;;;4.80;99.90;;;;;;4996728;28;20480;-73
2021/12/18 10:47:56;;;;;;;17.20;13.13;;;4.90;99.90;;;;;;4997719;28;20457;-72
2021/12/18 10:50:30;;;;;;;16.27;10.97;;;4.80;99.90;;;;;;4999170;28;20445;-73
2021/12/18 10:53:00;;;;;;;14.53;11.13;;;4.80;99.90;;;;;;4997852;28;20453;-72
2021/12/18 10:55:31;;;;;;;14.03;12.17;;;4.90;99.90;;;;;;4996910;28;20438;-72
2021/12/18 10:57:59;;;;;;;13.50;9.27;;;5.00;99.90;;;;;;4996441;28;20465;-72
2021/12/18 11:00:51;;;;;;;15.60;10.57;;;5.00;99.90;;;;;;4995181;28;20458;-72
2021/12/18 11:03:27;;;;;;;14.10;12.03;;;5.10;99.90;;;;;;4991788;28;20458;-73
2021/12/18 11:06:22;;;;;;;17.13;11.80;;;5.10;99.90;;;;;;4996091;28;20434;-72
2021/12/18 11:08:56;;;;;;;15.50;10.63;;;5.10;99.90;;;;;;4997028;28;20468;-73
2021/12/18 11:14:11;;;;;;;18.33;12.73;;;5.30;99.90;;;;;;4978675;28;20453;-73
2021/12/18 11:16:39;;;;;;;15.57;11.33;;;5.30;99.90;;;;;;4997565;28;20455;-72
2021/12/18 11:19:07;;;;;;;14.27;10.30;;;5.30;99.90;;;;;;4996735;28;20484;-72
2021/12/18 11:21:35;;;;;;;15.17;10.87;;;5.30;99.90;;;;;;4996470;28;21004;-73
2021/12/18 11:24:04;;;;;;;15.80;10.97;;;5.30;99.90;;;;;;4996775;28;20454;-73
2021/12/18 11:26:41;;;;;;;14.13;10.73;;;5.20;99.90;;;;;;4996922;28;20463;-73
2021/12/18 11:29:13;;;;;;;14.40;11.27;;;5.30;99.90;;;;;;4996712;28;20533;-73
2021/12/18 11:31:41;;;;;;;13.77;10.10;;;5.20;99.90;;;;;;4996412;28;20989;-72
2021/12/18 11:34:08;;;;;;;14.77;11.67;;;5.20;99.90;;;;;;4996682;28;20443;-73
2021/12/18 11:36:38;;;;;;;15.50;11.10;;;5.30;99.90;;;;;;4996402;28;20800;-73
2021/12/18 11:39:05;;;;;;;17.73;11.00;;;5.30;99.90;;;;;;4996107;28;20481;-72
2021/12/18 11:41:33;;;;;;;16.43;12.00;;;5.30;99.90;;;;;;4997155;28;20837;-73
2021/12/18 11:44:00;;;;;;;15.20;11.10;;;5.40;99.90;;;;;;4996803;28;20454;-73
2021/12/18 11:46:33;;;;;;;15.43;11.97;;;5.30;99.90;;;;;;4997141;28;20460;-72
2021/12/18 11:49:02;;;;;;;16.97;12.10;;;5.20;99.90;;;;;;4996963;28;20438;-72
2021/12/18 11:51:30;;;;;;;16.30;11.50;;;5.20;99.90;;;;;;4996761;28;20474;-72
2021/12/18 11:53:57;;;;;;;16.70;11.90;;;5.20;99.90;;;;;;4995976;28;20458;-73
2021/12/18 11:56:25;;;;;;;14.80;11.33;;;5.20;99.90;;;;;;4994927;28;20464;-69
2021/12/18 11:58:54;;;;;;;14.73;11.50;;;5.30;99.90;;;;;;4995260;28;20485;-71
2021/12/18 12:01:25;;;;;;;16.40;11.80;;;5.30;99.90;;;;;;4994348;28;20492;-70
2021/12/18 12:04:00;;;;;;;21.40;12.50;;;5.50;99.90;;;;;;4994705;28;20438;-70
2021/12/18 12:06:30;;;;;;;17.07;12.00;;;5.40;99.90;;;;;;4994252;28;20957;-70
2021/12/18 12:09:23;;;;;;;14.43;9.80;;;5.30;99.90;;;;;;4995571;28;20439;-70
2021/12/18 12:11:56;;;;;;;13.87;11.20;;;5.20;99.90;;;;;;4997379;28;20474;-70
2021/12/18 12:14:26;;;;;;;16.40;10.77;;;5.20;99.90;;;;;;4998877;28;20936;-71
2021/12/18 12:17:21;;;;;;;14.93;11.23;;;5.20;99.90;;;;;;4999237;28;20450;-70
2021/12/18 12:20:00;;;;;;;15.00;10.67;;;5.20;99.90;;;;;;4998435;28;20478;-70
2021/12/18 12:22:37;;;;;;;15.50;10.57;;;5.20;99.90;;;;;;4998502;28;20474;-70
2021/12/18 12:25:06;;;;;;;15.27;11.30;;;5.20;99.90;;;;;;4998661;28;20437;-71
2021/12/18 12:27:34;;;;;;;14.30;10.63;;;5.10;99.90;;;;;;4998555;28;20458;-70
2021/12/18 12:30:07;;;;;;;14.47;10.90;;;5.20;99.90;;;;;;4998261;28;20948;-70
2021/12/18 12:32:34;;;;;;;15.87;11.33;;;5.30;99.90;;;;;;5000926;28;20474;-70
2021/12/18 12:35:04;;;;;;;13.60;10.50;;;5.30;99.90;;;;;;5000073;28;20460;-70
2021/12/18 12:37:37;;;;;;;14.00;10.53;;;5.30;99.90;;;;;;4999484;28;20778;-70
2021/12/18 12:40:08;;;;;;;13.17;10.10;;;5.30;99.90;;;;;;4999537;28;20469;-70
2021/12/18 12:42:35;;;;;;;13.60;10.10;;;5.40;99.90;;;;;;5000191;28;20478;-70
2021/12/18 12:45:11;;;;;;;12.23;10.67;;;5.40;99.90;;;;;;4999391;28;20533;-70
2021/12/18 12:47:39;;;;;;;14.10;11.03;;;5.30;99.90;;;;;;4999269;28;20909;-69
2021/12/18 12:50:26;;;;;;;10.10;8.80;;;5.40;99.90;;;;;;4999757;28;20457;-70
2021/12/18 12:52:54;;;;;;;12.77;10.97;;;5.40;99.90;;;;;;4999027;28;20458;-70
2021/12/18 12:55:23;;;;;;;10.23;9.20;;;5.40;99.90;;;;;;4999000;28;20454;-70
2021/12/18 12:57:53;;;;;;;16.50;10.93;;;5.40;99.90;;;;;;4998514;28;20465;-70
2021/12/18 13:00:55;;;;;;;12.13;9.67;;;5.40;99.90;;;;;;4998763;28;20482;-71
2021/12/18 13:03:27;;;;;;;12.90;10.90;;;5.40;99.90;;;;;;4999145;28;20458;-70
2021/12/18 13:05:59;;;;;;;12.37;10.43;;;5.40;99.90;;;;;;4998991;28;20438;-69
2021/12/18 13:08:28;;;;;;;12.97;9.70;;;5.40;99.90;;;;;;4998688;28;20438;-70
2021/12/18 13:10:58;;;;;;;13.27;11.00;;;5.30;99.90;;;;;;4998912;28;20473;-70
2021/12/18 13:13:27;;;;;;;13.73;10.53;;;5.30;99.90;;;;;;4999091;28;20442;-70
2021/12/18 13:15:57;;;;;;;14.23;10.00;;;5.30;99.90;;;;;;4998997;28;20482;-70
2021/12/18 13:18:27;;;;;;;15.40;11.00;;;5.30;99.90;;;;;;4998407;28;20456;-70
2021/12/18 13:20:56;;;;;;;13.80;11.03;;;5.30;99.90;;;;;;4998937;28;20485;-70
2021/12/18 13:23:44;;;;;;;15.10;12.00;;;5.30;99.90;;;;;;4997615;28;20450;-71
2021/12/18 13:26:13;;;;;;;13.83;10.20;;;5.20;99.90;;;;;;4999016;28;20441;-70
2021/12/18 13:28:48;;;;;;;14.73;11.50;;;5.30;99.90;;;;;;4998462;28;20458;-71
2021/12/18 13:31:15;;;;;;;13.80;11.30;;;5.40;99.90;;;;;;4998666;28;20482;-70
2021/12/18 13:33:43;;;;;;;15.60;10.23;;;5.40;99.90;;;;;;4998621;28;20450;-70
2021/12/18 13:36:10;;;;;;;14.27;11.67;;;5.50;99.90;;;;;;4998948;28;20454;-71
2021/12/18 13:38:40;;;;;;;13.37;11.57;;;5.30;99.90;;;;;;5001977;28;20477;-71
2021/12/18 13:41:09;;;;;;;13.97;10.43;;;5.20;99.90;;;;;;5001481;28;20489;-71
2021/12/18 13:43:37;;;;;;;14.47;11.53;;;5.20;99.90;;;;;;4998530;28;20458;-69
2021/12/18 13:46:06;;;;;;;14.57;11.07;;;5.30;99.90;;;;;;4998359;28;20462;-72
2021/12/18 13:48:35;;;;;;;14.20;11.63;;;5.30;99.90;;;;;;4998582;28;20454;-70
2021/12/18 13:51:06;;;;;;;13.03;11.63;;;5.30;99.90;;;;;;4997989;28;20474;-68
2021/12/18 13:53:34;;;;;;;15.37;12.30;;;5.20;99.90;;;;;;4998834;28;20448;-67
2021/12/18 13:56:05;;;;;;;15.20;12.77;;;5.10;99.90;;;;;;4997876;28;20464;-67
2021/12/18 13:58:34;;;;;;;16.97;11.93;;;5.20;99.90;;;;;;4999357;28;20489;-68
2021/12/18 14:01:05;;;;;;;16.20;12.17;;;5.30;99.90;;;;;;4996254;28;21006;-67
2021/12/18 14:03:35;;;;;;;13.50;10.60;;;5.30;99.90;;;;;;4996881;28;20485;-67
2021/12/18 14:06:07;;;;;;;15.77;12.43;;;5.40;99.90;;;;;;4997198;28;20454;-71
2021/12/18 14:08:36;;;;;;;17.10;12.63;;;5.40;99.90;;;;;;4996591;28;20449;-67
2021/12/18 14:11:04;;;;;;;15.67;13.30;;;5.40;99.90;;;;;;4996149;28;20501;-67
2021/12/18 14:13:42;;;;;;;15.90;12.23;;;5.50;99.90;;;;;;4996362;28;20459;-67
2021/12/18 14:16:09;;;;;;;18.10;13.47;;;5.50;99.90;;;;;;4996337;28;20497;-66
2021/12/18 14:18:39;;;;;;;18.93;14.27;;;5.60;99.90;;;;;;4996242;28;20824;-68
2021/12/18 14:21:07;;;;;;;16.83;14.70;;;5.70;99.90;;;;;;4996222;28;20514;-67
2021/12/18 14:23:38;;;;;;;16.03;13.10;;;5.70;99.90;;;;;;4996244;28;20458;-68
2021/12/18 14:26:16;;;;;;;18.17;14.03;;;5.70;99.90;;;;;;4995940;28;20443;-69
2021/12/18 14:28:43;;;;;;;21.40;15.13;;;5.50;99.90;;;;;;4996398;28;20457;-68
2021/12/18 14:31:31;;;;;;;16.10;13.30;;;5.50;99.90;;;;;;4996232;28;21024;-66
2021/12/18 14:34:00;;;;;;;21.57;15.07;;;5.50;99.90;;;;;;4996101;28;20439;-67
2021/12/18 14:36:49;;;;;;;21.33;15.50;;;5.50;99.90;;;;;;4995603;28;20454;-67
2021/12/18 14:39:35;;;;;;;18.07;14.50;;;6.20;99.90;;;;;;4996266;28;20465;-67
2021/12/18 14:42:11;;;;;;;22.10;14.30;;;6.00;99.90;;;;;;4991743;28;20486;-67
2021/12/18 14:44:48;;;;;;;17.70;15.33;;;6.00;99.90;;;;;;4995934;28;20442;-70
2021/12/18 14:47:21;;;;;;;20.03;15.13;;;5.90;99.90;;;;;;4995976;28;20438;-69
2021/12/18 14:50:01;;;;;;;21.00;15.57;;;5.90;99.90;;;;;;4995842;28;20497;-68
2021/12/18 14:52:30;;;;;;;20.00;14.80;;;5.80;99.90;;;;;;4995984;28;20478;-68
2021/12/18 14:54:59;;;;;;;22.07;16.20;;;5.90;99.90;;;;;;4995913;28;20463;-69
2021/12/18 14:57:28;;;;;;;23.23;15.90;;;5.80;99.90;;;;;;4995633;28;20830;-68
2021/12/18 15:00:19;;;;;;;17.87;14.23;;;5.60;99.90;;;;;;4995317;28;20474;-68
2021/12/18 15:03:05;;;;;;;23.50;15.67;;;5.60;99.90;;;;;;4995282;28;20529;-68
2021/12/18 15:05:52;;;;;;;17.53;14.87;;;5.50;99.90;;;;;;4995447;28;20447;-69
2021/12/18 15:08:23;;;;;;;21.20;15.73;;;5.50;99.90;;;;;;4995682;28;20465;-70
2021/12/18 15:10:55;;;;;;;22.50;16.60;;;5.40;99.90;;;;;;4996481;28;20478;-70
2021/12/18 15:13:24;;;;;;;32.73;21.23;;;5.40;99.90;;;;;;4997926;28;20462;-71
2021/12/18 15:16:10;;;;;;;26.33;19.00;;;5.40;99.90;;;;;;4995646;28;20450;-71
2021/12/18 15:18:37;;;;;;;20.20;16.43;;;5.40;99.90;;;;;;4995450;28;20817;-71
2021/12/18 15:21:04;;;;;;;22.40;16.23;;;5.40;99.90;;;;;;4995138;28;21020;-71
2021/12/18 15:23:33;;;;;;;25.20;17.27;;;5.40;99.90;;;;;;4995257;28;20454;-70
2021/12/18 15:25:59;;;;;;;22.10;18.13;;;5.50;99.90;;;;;;4995431;28;20461;-69
2021/12/18 15:28:27;;;;;;;24.00;17.93;;;5.50;99.90;;;;;;4995550;28;20458;-69
2021/12/18 15:30:54;;;;;;;25.90;17.70;;;5.50;99.90;;;;;;4995186;28;20510;-70
2021/12/18 15:33:21;;;;;;;24.27;17.50;;;5.50;99.90;;;;;;4995843;28;20466;-70
2021/12/18 15:35:48;;;;;;;21.73;16.43;;;5.50;99.90;;;;;;4995865;28;20458;-69
2021/12/18 15:38:14;;;;;;;19.83;16.30;;;5.50;99.90;;;;;;4995429;28;20461;-68
2021/12/18 15:40:43;;;;;;;27.13;17.83;;;5.50;99.90;;;;;;4995044;28;20486;-71
2021/12/18 15:43:10;;;;;;;21.63;16.87;;;5.50;99.90;;;;;;4995684;28;20455;-69
2021/12/18 15:45:37;;;;;;;20.23;16.17;;;5.50;99.90;;;;;;4995042;28;20823;-69
2021/12/18 15:48:05;;;;;;;24.83;17.40;;;5.50;99.90;;;;;;4995593;28;20486;-70
2021/12/18 15:50:32;;;;;;;21.90;16.37;;;5.50;99.90;;;;;;4995280;28;20458;-69
2021/12/18 15:52:59;;;;;;;23.43;17.00;;;5.60;99.90;;;;;;4994927;28;20843;-68
2021/12/18 15:55:26;;;;;;;24.13;18.87;;;5.50;99.90;;;;;;4995154;28;20458;-69
2021/12/18 15:57:55;;;;;;;21.70;16.47;;;5.60;99.90;;;;;;4995113;28;20442;-67
2021/12/18 16:00:25;;;;;;;22.10;16.57;;;5.50;99.90;;;;;;4994600;28;20478;-68
2021/12/18 16:02:52;;;;;;;23.07;17.53;;;5.70;99.90;;;;;;4994822;28;21018;-68
2021/12/18 16:05:23;;;;;;;24.33;18.43;;;5.70;99.90;;;;;;4994833;28;20554;-68
2021/12/18 16:07:50;;;;;;;26.47;18.93;;;5.70;99.90;;;;;;4994744;28;20439;-68
2021/12/18 16:10:17;;;;;;;22.90;17.37;;;5.70;99.90;;;;;;4994758;28;20455;-68
2021/12/18 16:12:44;;;;;;;23.83;17.27;;;5.70;99.90;;;;;;4994474;28;20945;-69
2021/12/18 16:15:12;;;;;;;24.10;19.43;;;5.70;99.90;;;;;;4994622;28;20496;-67
2021/12/18 16:17:39;;;;;;;25.57;17.83;;;5.60;99.90;;;;;;4995365;28;20438;-68
2021/12/18 16:20:08;;;;;;;20.43;15.97;;;5.60;99.90;;;;;;4994627;28;20474;-69
2021/12/18 16:22:35;;;;;;;23.63;17.17;;;5.60;99.90;;;;;;4995138;28;20481;-67
2021/12/18 16:25:01;;;;;;;23.90;17.60;;;5.60;99.90;;;;;;4994836;28;20454;-68
2021/12/18 16:27:28;;;;;;;22.70;17.70;;;5.60;99.90;;;;;;4994214;28;20795;-68
2021/12/18 16:29:55;;;;;;;22.20;17.13;;;5.70;99.90;;;;;;4994312;28;20465;-67
2021/12/18 16:32:23;;;;;;;22.27;16.77;;;5.50;99.90;;;;;;4994874;28;20477;-68
2021/12/18 16:34:50;;;;;;;21.73;16.73;;;5.50;99.90;;;;;;4994546;28;20453;-68
2021/12/18 16:37:19;;;;;;;25.73;18.83;;;5.50;99.90;;;;;;4995206;28;20936;-68
2021/12/18 16:39:48;;;;;;;27.47;18.60;;;5.40;99.90;;;;;;4994936;28;20458;-67
2021/12/18 16:42:16;;;;;;;26.70;18.00;;;5.40;99.90;;;;;;4995195;28;20478;-68
2021/12/18 16:44:44;;;;;;;23.73;18.63;;;5.40;99.90;;;;;;4995458;28;20458;-68
2021/12/18 16:47:11;;;;;;;25.23;18.20;;;5.40;99.90;;;;;;4994457;28;20457;-69
2021/12/18 16:49:39;;;;;;;23.47;17.20;;;5.50;99.90;;;;;;4994272;28;20493;-68
2021/12/18 16:52:06;;;;;;;19.73;16.90;;;5.50;99.90;;;;;;4994220;28;20474;-69
2021/12/18 16:54:33;;;;;;;22.10;16.57;;;5.50;99.90;;;;;;4995164;28;20906;-68
2021/12/18 16:57:00;;;;;;;22.70;17.03;;;5.50;99.90;;;;;;4994314;28;20823;-68
2021/12/18 16:59:27;;;;;;;22.63;17.13;;;5.40;99.90;;;;;;4997674;28;20458;-68
2021/12/18 17:01:53;;;;;;;20.70;16.27;;;5.40;99.90;;;;;;4997682;28;20497;-69
2021/12/18 17:04:22;;;;;;;26.87;17.63;;;5.30;99.90;;;;;;4998704;28;20461;-69
2021/12/18 17:06:51;;;;;;;22.33;16.93;;;5.40;99.90;;;;;;4997957;28;21022;-68
2021/12/18 17:09:18;;;;;;;23.50;17.90;;;5.40;99.90;;;;;;4997260;28;20945;-69
2021/12/18 17:11:45;;;;;;;23.30;17.70;;;5.30;99.90;;;;;;4997027;28;20992;-69
2021/12/18 17:14:12;;;;;;;24.00;18.07;;;5.30;99.90;;;;;;4997515;28;20465;-68
2021/12/18 17:16:38;;;;;;;25.73;18.90;;;5.30;99.90;;;;;;4997099;28;20977;-69
2021/12/18 17:19:05;;;;;;;25.63;18.80;;;5.30;99.90;;;;;;4997472;28;20466;-69
2021/12/18 17:21:34;;;;;;;25.60;21.03;;;5.20;99.90;;;;;;4997203;28;20482;-69
2021/12/18 17:24:03;;;;;;;26.30;19.40;;;5.20;99.90;;;;;;4997351;28;20877;-70
2021/12/18 17:26:30;;;;;;;25.33;19.40;;;5.30;99.90;;;;;;4996970;28;20520;-69
2021/12/18 17:28:57;;;;;;;24.30;18.37;;;5.30;99.90;;;;;;4996942;28;20454;-70
2021/12/18 17:31:24;;;;;;;25.53;18.90;;;5.30;99.90;;;;;;4997019;28;20478;-71
2021/12/18 17:33:52;;;;;;;27.77;18.40;;;5.40;99.90;;;;;;4997083;28;20469;-70
2021/12/18 17:36:19;;;;;;;26.97;19.40;;;5.20;99.90;;;;;;4996939;28;20458;-69
2021/12/18 17:38:46;;;;;;;27.60;21.47;;;5.30;99.90;;;;;;4996948;28;20454;-69
2021/12/18 17:41:14;;;;;;;30.67;20.57;;;5.30;99.90;;;;;;4996923;28;20887;-71
2021/12/18 17:43:41;;;;;;;29.30;20.33;;;5.30;99.90;;;;;;4997843;28;20481;-70
2021/12/18 17:46:11;;;;;;;28.60;20.50;;;5.20;99.90;;;;;;4996979;28;20462;-70
2021/12/18 17:48:38;;;;;;;36.77;21.43;;;5.20;99.90;;;;;;4997596;28;20450;-70
2021/12/18 17:51:05;;;;;;;33.90;22.10;;;5.30;99.90;;;;;;4996685;28;20478;-70
2021/12/18 17:53:31;;;;;;;32.27;20.97;;;5.20;99.90;;;;;;4996550;28;20454;-70